Time,TemperatureF,DewpointF,PressureIn,WindDirection,WindDirectionDegrees,WindSpeedMPH,WindSpeedGustMPH,Humidity,HourlyPrecipIn,Conditions,Clouds,dailyrainin,SoftwareType,DateUTC
2013-08-24 00:02:00,64.8,60.5,30.11,ESE,105,1.3,2.3,86,0.00,,,0.00,WeatherDisplay:10.37,2013-08-24 05:02:00,
2013-08-24 00:07:00,64.6,60.3,30.11,ESE,105,2.1,3.5,86,0.00,,,0.00,WeatherDisplay:10.37,2013-08-24 05:07:00,
2013-08-24 00:12:00,64.4,60.4,30.11,ESE,102,1.7,3.5,87,0.00,,,0.00,WeatherDisplay:10.37,2013-08-24 05:12:00,
2013-08-24 00:17:00,64.3,60.3,30.11,ESE,103,1.6,2.3,87,0.00,,,0.00,WeatherDisplay:10.37,2013-08-24 05:17:00,
2013-08-24 00:22:00,64.0,60.1,30.11,ESE,102,1.8,3.5,87,0.00,,,0.00,WeatherDisplay:10.37,2013-08-24 05:22:00,
2013-08-24 00:27:00,63.8,60.2,30.11,East,90,2.3,3.5,88,0.00,,,0.00,WeatherDisplay:10.37,2013-08-24 05:27:00,
2013-08-24 00:32:00,63.6,60.0,30.11,East,101,2.0,3.5,88,0.00,,,0.00,WeatherDisplay:10.37,2013-08-24 05:32:00,
2013-08-24 00:37:00,63.4,59.8,30.11,East,101,1.5,2.3,88,0.00,,,0.00,WeatherDisplay:10.37,2013-08-24 05:37:00,
2013-08-24 00:42:00,63.1,59.8,30.11,ESE,107,1.5,2.3,89,0.00,,,0.00,WeatherDisplay:10.37,2013-08-24 05:42:00,
2013-08-24 00:47:00,62.8,59.5,30.11,ESE,112,0.1,1.1,89,0.00,,,0.00,WeatherDisplay:10.37,2013-08-24 05:47:00,
2013-08-24 00:52:00,62.8,59.8,30.11,ESE,110,0.8,2.3,90,0.00,,,0.00,WeatherDisplay:10.37,2013-08-24 05:52:00,
2013-08-24 00:57:00,62.8,59.5,30.12,East,92,0.3,1.1,89,0.00,,,0.00,WeatherDisplay:10.37,2013-08-24 05:57:00,
2013-08-24 01:02:00,62.8,59.5,30.12,East,92,0.0,1.1,89,0.00,,,0.00,WeatherDisplay:10.37,2013-08-24 06:02:00,
2013-08-24 01:07:00,62.7,59.4,30.12,ESE,103,0.0,1.1,89,0.00,,,0.00,WeatherDisplay:10.37,2013-08-24 06:07:00,
2013-08-24 01:12:00,62.6,59.3,30.12,ESE,103,0.1,1.1,89,0.00,,,0.00,WeatherDisplay:10.37,2013-08-24 06:12:00,
2013-08-24 01:17:00,62.6,59.3,30.12,ESE,115,0.2,1.1,89,0.00,,,0.00,WeatherDisplay:10.37,2013-08-24 06:17:00,
2013-08-24 01:22:00,62.6,59.0,30.12,ESE,113,0.0,0.0,88,0.00,,,0.00,WeatherDisplay:10.37,2013-08-24 06:22:00,
2013-08-24 01:27:00,62.4,59.1,30.12,ESE,113,0.0,0.0,89,0.00,,,0.00,WeatherDisplay:10.37,2013-08-24 06:27:00,
2013-08-24 01:32:00,62.2,58.9,30.12,ESE,113,0.1,1.1,89,0.00,,,0.00,WeatherDisplay:10.37,2013-08-24 06:32:00,
2013-08-24 01:37:00,62.1,58.8,30.12,ESE,113,0.0,0.0,89,0.00,,,0.00,WeatherDisplay:10.37,2013-08-24 06:37:00,
2013-08-24 01:42:00,62.0,58.7,30.12,ESE,110,0.5,1.1,89,0.00,,,0.00,WeatherDisplay:10.37,2013-08-24 06:42:00,
2013-08-24 01:47:00,62.1,58.8,30.13,ESE,113,0.6,2.3,89,0.00,,,0.00,WeatherDisplay:10.37,2013-08-24 06:47:00,
2013-08-24 01:52:00,61.6,58.3,30.13,ESE,114,0.3,1.1,89,0.00,,,0.00,WeatherDisplay:10.37,2013-08-24 06:52:00,
2013-08-24 01:57:00,61.4,58.1,30.13,East,95,2.7,4.0,89,0.00,,,0.00,WeatherDisplay:10.37,2013-08-24 06:57:00,
2013-08-24 02:02:00,61.8,57.9,30.13,East,101,3.1,4.0,87,0.00,,,0.00,WeatherDisplay:10.37,2013-08-24 07:02:00,
2013-08-24 02:07:00,61.9,57.7,30.13,East,89,2.4,3.5,86,0.00,,,0.00,WeatherDisplay:10.37,2013-08-24 07:07:00,
2013-08-24 02:12:00,61.9,57.7,30.13,East,90,1.9,3.5,86,0.00,,,0.00,WeatherDisplay:10.37,2013-08-24 07:12:00,
2013-08-24 02:17:00,62.1,57.5,30.13,East,87,0.8,2.3,85,0.00,,,0.00,WeatherDisplay:10.37,2013-08-24 07:17:00,
2013-08-24 02:22:00,62.2,57.6,30.13,ESE,103,1.6,3.5,85,0.00,,,0.00,WeatherDisplay:10.37,2013-08-24 07:22:00,
2013-08-24 02:27:00,62.3,57.4,30.13,ESE,107,2.3,3.5,84,0.00,,,0.00,WeatherDisplay:10.37,2013-08-24 07:27:00,
2013-08-24 02:32:00,62.3,57.4,30.13,East,83,2.3,3.5,84,0.00,,,0.00,WeatherDisplay:10.37,2013-08-24 07:32:00,
2013-08-24 02:37:00,62.1,57.2,30.13,ESE,104,1.7,3.5,84,0.00,,,0.00,WeatherDisplay:10.37,2013-08-24 07:37:00,
2013-08-24 02:42:00,61.9,57.0,30.13,East,99,2.3,3.5,84,0.00,,,0.00,WeatherDisplay:10.37,2013-08-24 07:42:00,
2013-08-24 02:47:00,61.8,57.2,30.13,East,96,1.7,2.3,85,0.00,,,0.00,WeatherDisplay:10.37,2013-08-24 07:47:00,
2013-08-24 02:52:00,61.6,57.0,30.13,East,100,1.2,3.5,85,0.00,,,0.00,WeatherDisplay:10.37,2013-08-24 07:52:00,
2013-08-24 02:57:00,61.6,57.0,30.13,East,97,1.8,2.3,85,0.00,,,0.00,WeatherDisplay:10.37,2013-08-24 07:57:00,
2013-08-24 03:02:00,61.7,57.1,30.13,East,94,1.3,3.5,85,0.00,,,0.00,WeatherDisplay:10.37,2013-08-24 08:02:00,
2013-08-24 03:07:00,61.8,56.9,30.13,East,82,0.8,2.3,84,0.00,,,0.00,WeatherDisplay:10.37,2013-08-24 08:07:00,
2013-08-24 03:12:00,61.8,56.9,30.13,ESE,104,1.0,2.3,84,0.00,,,0.00,WeatherDisplay:10.37,2013-08-24 08:12:00,
2013-08-24 03:17:00,61.7,56.8,30.13,ESE,102,0.5,2.3,84,0.00,,,0.00,WeatherDisplay:10.37,2013-08-24 08:17:00,
2013-08-24 03:22:00,61.8,56.9,30.14,East,86,0.5,1.1,84,0.00,,,0.00,WeatherDisplay:10.37,2013-08-24 08:22:00,
2013-08-24 03:27:00,61.7,56.8,30.14,East,100,0.0,0.0,84,0.00,,,0.00,WeatherDisplay:10.37,2013-08-24 08:27:00,
2013-08-24 03:32:00,61.4,56.5,30.14,ESE,105,0.0,1.0,84,0.00,,,0.00,WeatherDisplay:10.37,2013-08-24 08:32:00,
2013-08-24 03:37:00,61.4,56.5,30.14,ESE,113,0.9,2.3,84,0.00,,,0.00,WeatherDisplay:10.37,2013-08-24 08:37:00,
2013-08-24 03:42:00,61.3,56.8,30.14,ESE,120,0.0,0.0,85,0.00,,,0.00,WeatherDisplay:10.37,2013-08-24 08:42:00,
2013-08-24 03:47:00,60.8,56.6,30.14,ESE,120,0.0,0.0,86,0.00,,,0.00,WeatherDisplay:10.37,2013-08-24 08:47:00,
2013-08-24 03:52:00,60.4,56.5,30.14,ESE,115,0.1,1.1,87,0.00,,,0.00,WeatherDisplay:10.37,2013-08-24 08:52:00,
2013-08-24 03:57:00,60.3,56.4,30.14,ESE,110,0.5,1.1,87,0.00,,,0.00,WeatherDisplay:10.37,2013-08-24 08:57:00,
2013-08-24 04:02:00,60.5,56.6,30.14,ESE,105,1.2,2.3,87,0.00,,,0.00,WeatherDisplay:10.37,2013-08-24 09:02:00,
2013-08-24 04:07:00,60.7,56.5,30.14,East,101,0.2,1.1,86,0.00,,,0.00,WeatherDisplay:10.37,2013-08-24 09:07:00,
2013-08-24 04:12:00,60.6,56.4,30.14,ESE,102,0.0,0.0,86,0.00,,,0.00,WeatherDisplay:10.37,2013-08-24 09:12:00,
2013-08-24 04:17:00,60.5,56.3,30.14,ESE,102,0.0,0.0,86,0.00,,,0.00,WeatherDisplay:10.37,2013-08-24 09:17:00,
2013-08-24 04:22:00,60.5,56.6,30.14,ESE,103,0.0,0.0,87,0.00,,,0.00,WeatherDisplay:10.37,2013-08-24 09:22:00,
2013-08-24 04:27:00,60.6,56.7,30.15,East,95,0.0,0.0,87,0.00,,,0.00,WeatherDisplay:10.37,2013-08-24 09:27:00,
2013-08-24 04:32:00,60.6,56.7,30.15,ESE,104,0.0,0.0,87,0.00,,,0.00,WeatherDisplay:10.37,2013-08-24 09:32:00,
2013-08-24 04:37:00,60.7,56.8,30.15,East,98,0.0,0.0,87,0.00,,,0.00,WeatherDisplay:10.37,2013-08-24 09:37:00,
2013-08-24 04:42:00,60.6,56.7,30.15,East,98,0.0,0.0,87,0.00,,,0.00,WeatherDisplay:10.37,2013-08-24 09:42:00,
2013-08-24 04:47:00,60.7,56.5,30.15,East,98,0.0,0.0,86,0.00,,,0.00,WeatherDisplay:10.37,2013-08-24 09:47:00,
2013-08-24 04:52:00,60.9,56.7,30.15,ESE,106,0.1,0.0,86,0.00,,,0.00,WeatherDisplay:10.37,2013-08-24 09:52:00,
2013-08-24 04:57:00,60.9,56.7,30.15,ESE,108,0.0,0.0,86,0.00,,,0.00,WeatherDisplay:10.37,2013-08-24 09:57:00,
2013-08-24 05:02:00,60.5,56.6,30.15,ESE,107,0.0,1.1,87,0.00,,,0.00,WeatherDisplay:10.37,2013-08-24 10:02:00,
2013-08-24 05:07:00,60.0,56.7,30.15,ESE,107,0.0,0.0,89,0.00,,,0.00,WeatherDisplay:10.37,2013-08-24 10:07:00,
2013-08-24 05:12:00,59.7,56.5,30.15,ESE,107,0.0,0.0,89,0.00,,,0.00,WeatherDisplay:10.37,2013-08-24 10:12:00,
2013-08-24 05:17:00,59.6,56.7,30.15,ESE,108,0.0,0.0,90,0.00,,,0.00,WeatherDisplay:10.37,2013-08-24 10:17:00,
2013-08-24 05:22:00,59.6,56.7,30.15,ENE,75,0.1,1.1,90,0.00,,,0.00,WeatherDisplay:10.37,2013-08-24 10:22:00,
2013-08-24 05:27:00,59.5,56.6,30.15,ENE,68,0.0,0.0,90,0.00,,,0.00,WeatherDisplay:10.37,2013-08-24 10:27:00,
2013-08-24 05:32:00,59.4,56.5,30.16,ENE,68,0.1,1.1,90,0.00,,,0.00,WeatherDisplay:10.37,2013-08-24 10:32:00,
2013-08-24 05:37:00,59.3,56.7,30.16,ENE,68,0.0,0.0,91,0.00,,,0.00,WeatherDisplay:10.37,2013-08-24 10:37:00,
2013-08-24 05:42:00,59.2,56.6,30.16,ENE,66,0.0,0.0,91,0.00,,,0.00,WeatherDisplay:10.37,2013-08-24 10:42:00,
2013-08-24 05:47:00,59.1,56.5,30.16,ENE,68,0.1,1.1,91,0.00,,,0.00,WeatherDisplay:10.37,2013-08-24 10:47:00,
2013-08-24 05:52:00,59.0,56.7,30.16,ENE,68,0.0,0.0,92,0.00,,,0.00,WeatherDisplay:10.37,2013-08-24 10:52:00,
2013-08-24 05:57:00,58.9,56.6,30.16,ENE,68,0.0,1.1,92,0.00,,,0.00,WeatherDisplay:10.37,2013-08-24 10:57:00,
2013-08-24 06:02:00,58.7,56.4,30.16,ENE,65,0.1,1.1,92,0.00,CLR,,0.00,WeatherDisplay:10.37,2013-08-24 11:02:00,
2013-08-24 06:07:00,58.6,56.3,30.16,ENE,65,0.0,0.0,92,0.00,CLR,,0.00,WeatherDisplay:10.37,2013-08-24 11:07:00,
2013-08-24 06:12:00,58.5,56.5,30.17,ENE,68,0.0,0.0,93,0.00,CLR,,0.00,WeatherDisplay:10.37,2013-08-24 11:12:00,
2013-08-24 06:18:00,58.3,56.0,30.17,ESE,123,0.1,1.0,92,0.00,CLR,,0.00,WeatherDisplay:10.37,2013-08-24 11:18:00,
2013-08-24 06:23:00,58.0,56.0,30.17,SE,127,0.0,1.1,93,0.00,CLR,,0.00,WeatherDisplay:10.37,2013-08-24 11:23:00,
2013-08-24 06:28:00,57.8,55.8,30.17,ESE,115,0.0,0.0,93,0.00,CLR,,0.00,WeatherDisplay:10.37,2013-08-24 11:28:00,
2013-08-24 06:33:00,57.8,56.1,30.17,ESE,110,0.0,0.0,94,0.00,CLR,,0.00,WeatherDisplay:10.37,2013-08-24 11:33:00,
2013-08-24 06:38:00,57.8,56.1,30.17,ESE,113,0.0,1.1,94,0.00,CLR,,0.00,WeatherDisplay:10.37,2013-08-24 11:38:00,
2013-08-24 06:43:00,57.9,56.2,30.17,ESE,113,0.0,1.0,94,0.00,CLR,,0.00,WeatherDisplay:10.37,2013-08-24 11:43:00,
2013-08-24 06:48:00,57.9,56.2,30.18,ESE,104,0.0,1.1,94,0.00,CLR,,0.00,WeatherDisplay:10.37,2013-08-24 11:48:00,
2013-08-24 06:53:00,58.0,56.3,30.18,ESE,104,0.0,0.0,94,0.00,CLR,,0.00,WeatherDisplay:10.37,2013-08-24 11:53:00,
2013-08-24 06:58:00,58.1,56.4,30.18,ESE,104,0.0,0.0,94,0.00,CLR,,0.00,WeatherDisplay:10.37,2013-08-24 11:58:00,
2013-08-24 07:03:00,58.2,56.8,30.18,East,94,0.0,0.0,95,0.00,CLR,,0.00,WeatherDisplay:10.37,2013-08-24 12:03:00,
2013-08-24 07:08:00,58.4,57.0,30.18,East,95,0.0,0.0,95,0.00,CLR,,0.00,WeatherDisplay:10.37,2013-08-24 12:08:00,
2013-08-24 07:13:00,58.6,57.2,30.18,East,96,0.0,0.0,95,0.00,CLR,,0.00,WeatherDisplay:10.37,2013-08-24 12:13:00,
2013-08-24 07:18:00,58.9,57.5,30.19,East,96,0.0,0.0,95,0.00,CLR,,0.00,WeatherDisplay:10.37,2013-08-24 12:18:00,
2013-08-24 07:23:00,59.4,58.0,30.19,ESE,104,0.0,0.0,95,0.00,CLR,,0.00,WeatherDisplay:10.37,2013-08-24 12:23:00,
2013-08-24 07:28:00,60.0,58.3,30.19,ESE,115,0.0,0.0,94,0.00,CLR,,0.00,WeatherDisplay:10.37,2013-08-24 12:28:00,
2013-08-24 07:33:00,60.3,58.3,30.19,East,98,0.1,1.1,93,0.00,CLR,,0.00,WeatherDisplay:10.37,2013-08-24 12:33:00,
2013-08-24 07:38:00,60.5,58.5,30.19,East,89,0.9,2.3,93,0.00,CLR,,0.00,WeatherDisplay:10.37,2013-08-24 12:38:00,
2013-08-24 07:43:00,60.8,58.8,30.19,SE,125,0.1,1.1,93,0.00,CLR,,0.00,WeatherDisplay:10.37,2013-08-24 12:43:00,
2013-08-24 07:48:00,61.3,59.3,30.19,East,86,0.8,2.3,93,0.00,CLR,,0.00,WeatherDisplay:10.37,2013-08-24 12:48:00,
2013-08-24 07:53:00,62.1,59.7,30.19,ESE,110,0.9,2.3,92,0.00,CLR,,0.00,WeatherDisplay:10.37,2013-08-24 12:53:00,
2013-08-24 07:58:00,63.2,60.5,30.19,East,85,0.0,1.1,91,0.00,CLR,,0.00,WeatherDisplay:10.37,2013-08-24 12:58:00,
2013-08-24 08:03:00,64.3,61.0,30.19,ESE,113,0.4,1.1,89,0.00,CLR,,0.00,WeatherDisplay:10.37,2013-08-24 13:03:00,
2013-08-24 08:08:00,65.2,61.2,30.19,ESE,113,1.7,3.5,87,0.00,CLR,,0.00,WeatherDisplay:10.37,2013-08-24 13:08:00,
2013-08-24 08:13:00,65.7,61.7,30.19,ESE,105,2.2,3.5,87,0.00,CLR,,0.00,WeatherDisplay:10.37,2013-08-24 13:13:00,
2013-08-24 08:18:00,66.3,62.0,30.19,East,86,1.8,3.5,86,0.00,CLR,,0.00,WeatherDisplay:10.37,2013-08-24 13:18:00,
2013-08-24 08:23:00,66.9,62.2,30.19,ESE,105,2.7,3.5,85,0.00,CLR,,0.00,WeatherDisplay:10.37,2013-08-24 13:23:00,
2013-08-24 08:28:00,67.9,62.9,30.19,ESE,110,2.9,3.5,84,0.00,CLR,,0.00,WeatherDisplay:10.37,2013-08-24 13:28:00,
2013-08-24 08:33:00,68.6,62.9,30.20,ESE,102,2.7,4.0,82,0.00,CLR,,0.00,WeatherDisplay:10.37,2013-08-24 13:33:00,
2013-08-24 08:38:00,69.2,63.8,30.20,SE,134,1.1,4.0,83,0.00,CLR,,0.00,WeatherDisplay:10.37,2013-08-24 13:38:00,
2013-08-24 08:43:00,69.8,63.3,30.20,ESE,103,3.5,5.8,80,0.00,CLR,,0.00,WeatherDisplay:10.37,2013-08-24 13:43:00,
2013-08-24 08:48:00,70.3,64.2,30.20,ESE,115,2.7,3.5,81,0.00,CLR,,0.00,WeatherDisplay:10.37,2013-08-24 13:48:00,
2013-08-24 08:53:00,70.8,64.3,30.20,ESE,104,1.6,3.5,80,0.00,CLR,,0.00,WeatherDisplay:10.37,2013-08-24 13:53:00,
2013-08-24 08:58:00,71.5,65.0,30.19,SE,131,2.5,4.0,80,0.00,CLR,,0.00,WeatherDisplay:10.37,2013-08-24 13:58:00,
2013-08-24 09:03:00,72.0,65.1,30.19,ESE,103,2.6,4.6,79,0.00,CLR,,0.00,WeatherDisplay:10.37,2013-08-24 14:03:00,
2013-08-24 09:08:00,72.4,65.2,30.19,ESE,110,1.7,3.5,78,0.00,CLR,,0.00,WeatherDisplay:10.37,2013-08-24 14:08:00,
2013-08-24 09:13:00,73.0,65.7,30.19,SE,139,1.5,3.5,78,0.00,CLR,,0.00,WeatherDisplay:10.37,2013-08-24 14:13:00,
2013-08-24 09:18:00,73.6,65.9,30.19,East,98,2.4,3.5,77,0.00,CLR,,0.00,WeatherDisplay:10.37,2013-08-24 14:18:00,
2013-08-24 09:23:00,74.1,66.4,30.19,ESE,115,2.7,3.5,77,0.00,CLR,,0.00,WeatherDisplay:10.37,2013-08-24 14:23:00,
2013-08-24 09:28:00,74.6,66.5,30.19,SSE,148,2.6,3.5,76,0.00,CLR,,0.00,WeatherDisplay:10.37,2013-08-24 14:28:00,
2013-08-24 09:33:00,75.2,66.7,30.19,ESE,120,3.5,4.6,75,0.00,CLR,,0.00,WeatherDisplay:10.37,2013-08-24 14:33:00,
2013-08-24 09:38:00,75.4,66.9,30.19,ESE,115,2.6,3.5,75,0.00,CLR,,0.00,WeatherDisplay:10.37,2013-08-24 14:38:00,
2013-08-24 09:43:00,75.8,67.3,30.19,ESE,111,3.2,4.6,75,0.00,CLR,,0.00,WeatherDisplay:10.37,2013-08-24 14:43:00,
2013-08-24 09:48:00,76.2,67.3,30.19,ESE,120,3.8,5.8,74,0.00,CLR,,0.00,WeatherDisplay:10.37,2013-08-24 14:48:00,
2013-08-24 09:53:00,76.6,67.7,30.19,SSE,148,3.6,5.8,74,0.00,CLR,,0.00,WeatherDisplay:10.37,2013-08-24 14:53:00,
2013-08-24 09:58:00,77.2,68.3,30.18,ESE,120,4.1,9.2,74,0.00,CLR,,0.00,WeatherDisplay:10.37,2013-08-24 14:58:00,
2013-08-24 10:03:00,77.5,67.8,30.18,SE,124,3.7,6.0,72,0.00,CLR,,0.00,WeatherDisplay:10.37,2013-08-24 15:03:00,
2013-08-24 10:08:00,78.0,68.2,30.19,ESE,110,2.5,5.8,72,0.00,CLR,,0.00,WeatherDisplay:10.37,2013-08-24 15:08:00,
2013-08-24 10:13:00,78.7,69.3,30.18,SSE,155,3.4,4.6,73,0.00,CLR,,0.00,WeatherDisplay:10.37,2013-08-24 15:13:00,
2013-08-24 10:18:00,79.1,69.3,30.18,SE,127,4.0,7.0,72,0.00,CLR,,0.00,WeatherDisplay:10.37,2013-08-24 15:18:00,
2013-08-24 10:23:00,79.4,69.2,30.18,East,96,1.9,3.5,71,0.00,CLR,,0.00,WeatherDisplay:10.37,2013-08-24 15:23:00,
2013-08-24 10:28:00,79.7,69.9,30.18,ESE,121,2.5,5.8,72,0.00,CLR,,0.00,WeatherDisplay:10.37,2013-08-24 15:28:00,
2013-08-24 10:33:00,80.3,70.4,30.18,ESE,121,3.5,5.0,72,0.00,CLR,,0.00,WeatherDisplay:10.37,2013-08-24 15:33:00,
2013-08-24 10:38:00,80.5,69.8,30.18,SE,137,3.4,4.0,70,0.00,CLR,,0.00,WeatherDisplay:10.37,2013-08-24 15:38:00,
2013-08-24 10:43:00,80.7,70.0,30.18,SSE,150,3.1,4.0,70,0.00,CLR,,0.00,WeatherDisplay:10.37,2013-08-24 15:43:00,
2013-08-24 10:48:00,81.2,70.9,30.18,SW,226,2.4,4.0,71,0.00,CLR,,0.00,WeatherDisplay:10.37,2013-08-24 15:48:00,
2013-08-24 10:53:00,81.6,70.9,30.18,SE,143,2.4,4.6,70,0.00,CLR,,0.00,WeatherDisplay:10.37,2013-08-24 15:53:00,
2013-08-24 10:58:00,81.7,70.1,30.18,SSW,201,2.2,3.5,68,0.00,CLR,,0.00,WeatherDisplay:10.37,2013-08-24 15:58:00,
2013-08-24 11:03:00,82.3,72.0,30.18,South,180,2.4,3.5,71,0.00,CLR,,0.00,WeatherDisplay:10.37,2013-08-24 16:03:00,
2013-08-24 11:08:00,82.6,71.0,30.18,SSW,204,1.8,5.8,68,0.00,CLR,,0.00,WeatherDisplay:10.37,2013-08-24 16:08:00,
2013-08-24 11:13:00,82.8,70.7,30.18,ESE,123,1.6,3.5,67,0.00,CLR,,0.00,WeatherDisplay:10.37,2013-08-24 16:13:00,
2013-08-24 11:18:00,82.9,71.3,30.18,SSE,163,2.7,3.5,68,0.00,CLR,,0.00,WeatherDisplay:10.37,2013-08-24 16:18:00,
2013-08-24 11:23:00,82.9,71.7,30.18,SW,214,2.1,3.5,69,0.00,CLR,,0.00,WeatherDisplay:10.37,2013-08-24 16:23:00,
2013-08-24 11:28:00,83.2,71.1,30.19,SSE,165,2.4,5.8,67,0.00,CLR,,0.00,WeatherDisplay:10.37,2013-08-24 16:28:00,
2013-08-24 11:33:00,83.4,72.2,30.19,SE,143,3.5,4.6,69,0.00,CLR,,0.00,WeatherDisplay:10.37,2013-08-24 16:33:00,
2013-08-24 11:38:00,83.4,71.7,30.19,ESE,123,4.0,5.8,68,0.00,CLR,,0.00,WeatherDisplay:10.37,2013-08-24 16:38:00,
2013-08-24 11:43:00,83.7,72.9,30.18,SW,235,1.3,8.1,70,0.00,CLR,,0.00,WeatherDisplay:10.37,2013-08-24 16:43:00,
2013-08-24 11:48:00,83.5,71.8,30.18,WSW,245,2.6,6.0,68,0.00,CLR,,0.00,WeatherDisplay:10.37,2013-08-24 16:48:00,
2013-08-24 11:53:00,83.3,71.6,30.18,SW,224,3.5,5.0,68,0.00,CLR,,0.00,WeatherDisplay:10.37,2013-08-24 16:53:00,
2013-08-24 11:58:00,83.4,72.2,30.18,SSE,150,2.7,5.8,69,0.00,CLR,,0.00,WeatherDisplay:10.37,2013-08-24 16:58:00,
2013-08-24 12:03:00,83.6,71.9,30.18,SW,214,1.0,4.6,68,0.00,CLR,,0.00,WeatherDisplay:10.37,2013-08-24 17:03:00,
2013-08-24 12:08:00,84.2,71.6,30.18,SSE,149,3.8,5.8,66,0.00,CLR,,0.00,WeatherDisplay:10.37,2013-08-24 17:08:00,
2013-08-24 12:13:00,84.7,72.1,30.18,SSE,153,3.3,6.0,66,0.00,CLR,,0.00,WeatherDisplay:10.37,2013-08-24 17:13:00,
2013-08-24 12:19:00,84.9,71.8,30.18,SSE,165,2.8,5.8,65,0.00,CLR,,0.00,WeatherDisplay:10.37,2013-08-24 17:19:00,
2013-08-24 12:24:00,84.8,72.6,30.17,South,169,3.4,5.0,67,0.00,CLR,,0.00,WeatherDisplay:10.37,2013-08-24 17:24:00,
2013-08-24 12:29:00,84.9,72.7,30.17,SSW,195,1.9,3.5,67,0.00,CLR,,0.00,WeatherDisplay:10.37,2013-08-24 17:29:00,
2013-08-24 12:34:00,85.1,72.0,30.17,SSE,161,3.6,5.8,65,0.00,CLR,,0.00,WeatherDisplay:10.37,2013-08-24 17:34:00,
2013-08-24 12:39:00,85.1,71.5,30.17,SSE,165,2.2,4.6,64,0.00,CLR,,0.00,WeatherDisplay:10.37,2013-08-24 17:39:00,
2013-08-24 12:44:00,85.3,71.3,30.17,SW,233,1.5,3.5,63,0.00,CLR,,0.00,WeatherDisplay:10.37,2013-08-24 17:44:00,
2013-08-24 12:49:00,85.9,71.8,30.16,SE,145,2.7,3.5,63,0.00,CLR,,0.00,WeatherDisplay:10.37,2013-08-24 17:49:00,
2013-08-24 12:54:00,85.7,71.7,30.16,South,181,2.4,4.0,63,0.00,CLR,,0.00,WeatherDisplay:10.37,2013-08-24 17:54:00,
2013-08-24 12:59:00,85.7,72.1,30.17,SSW,205,2.1,3.5,64,0.00,CLR,,0.00,WeatherDisplay:10.37,2013-08-24 17:59:00,
2013-08-24 13:04:00,86.1,71.6,30.16,SSE,153,3.1,8.1,62,0.00,CLR,,0.00,WeatherDisplay:10.37,2013-08-24 18:04:00,
2013-08-24 13:09:00,86.1,71.1,30.16,SE,141,1.4,4.6,61,0.00,CLR,,0.00,WeatherDisplay:10.37,2013-08-24 18:09:00,
2013-08-24 13:14:00,86.2,71.6,30.16,WSW,250,3.9,4.0,62,0.00,CLR,,0.00,WeatherDisplay:10.37,2013-08-24 18:14:00,
2013-08-24 13:19:00,86.2,73.0,30.16,South,169,4.2,5.8,65,0.00,CLR,,0.00,WeatherDisplay:10.37,2013-08-24 18:19:00,
2013-08-24 13:24:00,86.5,71.0,30.16,SE,142,3.3,6.9,60,0.00,CLR,,0.00,WeatherDisplay:10.37,2013-08-24 18:24:00,
2013-08-24 13:29:00,86.5,71.5,30.16,West,267,0.7,2.3,61,0.00,CLR,,0.00,WeatherDisplay:10.37,2013-08-24 18:29:00,
2013-08-24 13:34:00,87.0,71.9,30.15,SSW,206,4.0,6.9,61,0.00,CLR,,0.00,WeatherDisplay:10.37,2013-08-24 18:34:00,
2013-08-24 13:39:00,87.0,71.9,30.15,SE,132,2.2,3.5,61,0.00,CLR,,0.00,WeatherDisplay:10.37,2013-08-24 18:39:00,
2013-08-24 13:44:00,87.4,72.8,30.15,SSE,148,2.5,4.6,62,0.00,CLR,,0.00,WeatherDisplay:10.37,2013-08-24 18:44:00,
2013-08-24 13:49:00,87.3,72.7,30.15,SW,217,2.3,4.0,62,0.00,CLR,,0.00,WeatherDisplay:10.37,2013-08-24 18:49:00,
2013-08-24 13:54:00,87.1,71.5,30.15,SSE,150,2.3,4.6,60,0.00,CLR,,0.00,WeatherDisplay:10.37,2013-08-24 18:54:00,
2013-08-24 13:59:00,87.3,71.2,30.15,SE,128,3.1,6.9,59,0.00,CLR,,0.00,WeatherDisplay:10.37,2013-08-24 18:59:00,
2013-08-24 14:04:00,87.5,71.9,30.15,SE,143,3.3,5.8,60,0.00,CLR,,0.00,WeatherDisplay:10.37,2013-08-24 19:04:00,
2013-08-24 14:09:00,87.4,71.3,30.15,SE,141,3.9,4.6,59,0.00,CLR,,0.00,WeatherDisplay:10.37,2013-08-24 19:09:00,
2013-08-24 14:14:00,87.1,72.0,30.14,SE,134,4.7,5.8,61,0.00,CLR,,0.00,WeatherDisplay:10.37,2013-08-24 19:14:00,
2013-08-24 14:19:00,87.0,71.4,30.14,SE,134,4.3,6.9,60,0.00,CLR,,0.00,WeatherDisplay:10.37,2013-08-24 19:19:00,
2013-08-24 14:24:00,87.1,72.5,30.14,ESE,107,4.4,5.8,62,0.00,CLR,,0.00,WeatherDisplay:10.37,2013-08-24 19:24:00,
2013-08-24 14:29:00,87.5,72.4,30.14,South,169,3.1,4.6,61,0.00,CLR,,0.00,WeatherDisplay:10.37,2013-08-24 19:29:00,
2013-08-24 14:34:00,87.4,71.8,30.14,SE,133,4.0,4.6,60,0.00,CLR,,0.00,WeatherDisplay:10.37,2013-08-24 19:34:00,
2013-08-24 14:39:00,87.5,71.4,30.14,ESE,122,3.3,3.5,59,0.00,CLR,,0.00,WeatherDisplay:10.37,2013-08-24 19:39:00,
2013-08-24 14:44:00,87.9,72.8,30.14,SE,125,2.7,7.0,61,0.00,CLR,,0.00,WeatherDisplay:10.37,2013-08-24 19:44:00,
2013-08-24 14:49:00,88.0,71.9,30.14,ESE,106,3.3,5.8,59,0.00,CLR,,0.00,WeatherDisplay:10.37,2013-08-24 19:49:00,
2013-08-24 14:54:00,88.0,72.4,30.13,SW,217,3.1,4.6,60,0.00,CLR,,0.00,WeatherDisplay:10.37,2013-08-24 19:54:00,
2013-08-24 14:59:00,88.3,72.7,30.13,SE,131,2.0,3.5,60,0.00,CLR,,0.00,WeatherDisplay:10.37,2013-08-24 19:59:00,
2013-08-24 15:04:00,88.2,72.1,30.13,SE,135,4.1,5.8,59,0.00,CLR,,0.00,WeatherDisplay:10.37,2013-08-24 20:04:00,
2013-08-24 15:09:00,88.0,72.9,30.13,SSE,159,2.8,4.0,61,0.00,CLR,,0.00,WeatherDisplay:10.37,2013-08-24 20:09:00,
2013-08-24 15:14:00,87.9,71.8,30.13,SE,132,2.8,5.8,59,0.00,CLR,,0.00,WeatherDisplay:10.37,2013-08-24 20:14:00,
2013-08-24 15:19:00,88.0,72.4,30.13,East,94,4.0,8.0,60,0.00,CLR,,0.00,WeatherDisplay:10.37,2013-08-24 20:19:00,
2013-08-24 15:24:00,87.9,73.3,30.13,SSE,152,3.4,5.8,62,0.00,CLR,,0.00,WeatherDisplay:10.37,2013-08-24 20:24:00,
2013-08-24 15:29:00,88.3,72.2,30.12,SE,135,2.9,5.0,59,0.00,CLR,,0.00,WeatherDisplay:10.37,2013-08-24 20:29:00,
2013-08-24 15:34:00,88.0,72.4,30.12,ESE,120,2.7,4.6,60,0.00,CLR,,0.00,WeatherDisplay:10.37,2013-08-24 20:34:00,
2013-08-24 15:39:00,88.3,72.2,30.13,SE,142,2.1,3.5,59,0.00,CLR,,0.00,WeatherDisplay:10.37,2013-08-24 20:39:00,
2013-08-24 15:44:00,87.8,72.2,30.12,ESE,122,3.3,4.6,60,0.00,CLR,,0.00,WeatherDisplay:10.37,2013-08-24 20:44:00,
2013-08-24 15:49:00,88.0,73.3,30.12,SE,125,1.5,3.5,62,0.00,CLR,,0.00,WeatherDisplay:10.37,2013-08-24 20:49:00,
2013-08-24 15:54:00,88.1,72.5,30.12,South,184,2.3,3.5,60,0.00,CLR,,0.00,WeatherDisplay:10.37,2013-08-24 20:54:00,
2013-08-24 15:59:00,88.1,72.5,30.12,SSE,148,3.0,3.5,60,0.00,CLR,,0.00,WeatherDisplay:10.37,2013-08-24 20:59:00,
2013-08-24 16:04:00,87.8,72.7,30.12,SE,136,1.6,3.5,61,0.00,CLR,,0.00,WeatherDisplay:10.37,2013-08-24 21:04:00,
2013-08-24 16:09:00,87.4,72.8,30.12,SSW,197,2.1,4.0,62,0.00,CLR,,0.00,WeatherDisplay:10.37,2013-08-24 21:09:00,
2013-08-24 16:14:00,87.8,72.7,30.12,South,190,1.5,2.3,61,0.00,CLR,,0.00,WeatherDisplay:10.37,2013-08-24 21:14:00,
2013-08-24 16:19:00,88.2,72.6,30.11,South,183,4.3,5.8,60,0.00,CLR,,0.00,WeatherDisplay:10.37,2013-08-24 21:19:00,
2013-08-24 16:24:00,88.1,72.5,30.11,SSE,167,2.2,3.5,60,0.00,CLR,,0.00,WeatherDisplay:10.37,2013-08-24 21:24:00,
2013-08-24 16:29:00,88.0,72.4,30.11,SSE,148,2.6,3.5,60,0.00,CLR,,0.00,WeatherDisplay:10.37,2013-08-24 21:29:00,
2013-08-24 16:34:00,88.0,71.9,30.11,SE,143,3.0,3.5,59,0.00,CLR,,0.00,WeatherDisplay:10.37,2013-08-24 21:34:00,
2013-08-24 16:39:00,88.0,72.9,30.11,ESE,110,3.3,4.6,61,0.00,CLR,,0.00,WeatherDisplay:10.37,2013-08-24 21:39:00,
2013-08-24 16:44:00,88.0,72.4,30.11,SE,142,3.9,5.8,60,0.00,CLR,,0.00,WeatherDisplay:10.37,2013-08-24 21:44:00,
2013-08-24 16:49:00,87.5,72.4,30.11,SE,138,4.4,5.8,61,0.00,CLR,,0.00,WeatherDisplay:10.37,2013-08-24 21:49:00,
2013-08-24 16:54:00,87.3,71.7,30.11,SE,128,4.6,8.1,60,0.00,CLR,,0.00,WeatherDisplay:10.37,2013-08-24 21:54:00,
2013-08-24 16:59:00,87.2,72.6,30.11,SE,133,3.9,5.8,62,0.00,CLR,,0.00,WeatherDisplay:10.37,2013-08-24 21:59:00,
2013-08-24 17:04:00,87.0,72.4,30.11,SE,131,3.3,6.9,62,0.00,CLR,,0.00,WeatherDisplay:10.37,2013-08-24 22:04:00,
2013-08-24 17:09:00,86.9,72.8,30.11,South,184,2.4,3.5,63,0.00,CLR,,0.00,WeatherDisplay:10.37,2013-08-24 22:09:00,
2013-08-24 17:14:00,87.2,72.6,30.11,SSE,158,2.8,3.5,62,0.00,CLR,,0.00,WeatherDisplay:10.37,2013-08-24 22:14:00,
2013-08-24 17:19:00,86.9,72.3,30.11,SSE,155,1.8,5.8,62,0.00,CLR,,0.00,WeatherDisplay:10.37,2013-08-24 22:19:00,
2013-08-24 17:24:00,86.7,72.1,30.11,SE,135,3.0,3.5,62,0.00,CLR,,0.00,WeatherDisplay:10.37,2013-08-24 22:24:00,
2013-08-24 17:29:00,86.6,72.0,30.11,SSE,150,4.0,5.8,62,0.00,CLR,,0.00,WeatherDisplay:10.37,2013-08-24 22:29:00,
2013-08-24 17:34:00,86.5,72.4,30.11,SSE,148,3.3,4.6,63,0.00,CLR,,0.00,WeatherDisplay:10.37,2013-08-24 22:34:00,
2013-08-24 17:39:00,86.3,72.2,30.10,East,101,4.2,6.9,63,0.00,CLR,,0.00,WeatherDisplay:10.37,2013-08-24 22:39:00,
2013-08-24 17:44:00,86.0,72.4,30.10,SE,134,3.6,5.8,64,0.00,CLR,,0.00,WeatherDisplay:10.37,2013-08-24 22:44:00,
2013-08-24 17:49:00,85.9,72.8,30.10,SE,131,3.3,5.8,65,0.00,CLR,,0.00,WeatherDisplay:10.37,2013-08-24 22:49:00,
2013-08-24 17:54:00,85.6,72.0,30.10,South,191,3.6,5.8,64,0.00,CLR,,0.00,WeatherDisplay:10.37,2013-08-24 22:54:00,
2013-08-24 17:59:00,85.4,72.3,30.10,SSE,148,3.7,5.8,65,0.00,CLR,,0.00,WeatherDisplay:10.37,2013-08-24 22:59:00,
2013-08-24 18:04:00,85.2,72.6,30.10,SSE,156,2.1,3.5,66,0.00,CLR,,0.00,WeatherDisplay:10.37,2013-08-24 23:04:00,
2013-08-24 18:09:00,85.2,73.0,30.10,SSE,150,2.2,3.5,67,0.00,CLR,,0.00,WeatherDisplay:10.37,2013-08-24 23:09:00,
2013-08-24 18:14:00,85.0,71.9,30.10,South,176,3.2,4.6,65,0.00,CLR,,0.00,WeatherDisplay:10.37,2013-08-24 23:14:00,
2013-08-24 18:19:00,84.7,71.6,30.10,SSE,148,2.8,4.6,65,0.00,CLR,,0.00,WeatherDisplay:10.37,2013-08-24 23:19:00,
2013-08-24 18:24:00,84.3,72.1,30.10,SSE,155,2.3,4.0,67,0.00,CLR,,0.00,WeatherDisplay:10.37,2013-08-24 23:24:00,
2013-08-24 18:29:00,83.9,72.2,30.10,SSE,148,2.2,3.5,68,0.00,CLR,,0.00,WeatherDisplay:10.37,2013-08-24 23:29:00,
2013-08-24 18:34:00,83.5,71.8,30.10,SE,136,1.7,3.5,68,0.00,CLR,,0.00,WeatherDisplay:10.37,2013-08-24 23:34:00,
2013-08-24 18:39:00,82.9,72.1,30.10,SE,138,1.3,3.5,70,0.00,CLR,,0.00,WeatherDisplay:10.37,2013-08-24 23:39:00,
2013-08-24 18:44:00,82.1,72.2,30.10,SE,131,1.0,1.1,72,0.00,CLR,,0.00,WeatherDisplay:10.37,2013-08-24 23:44:00,
2013-08-24 18:49:00,81.1,71.6,30.10,SE,131,1.4,2.3,73,0.00,CLR,,0.00,WeatherDisplay:10.37,2013-08-24 23:49:00,
2013-08-24 18:54:00,80.2,71.6,30.10,SE,136,1.3,2.3,75,0.00,CLR,,0.00,WeatherDisplay:10.37,2013-08-24 23:54:00,
2013-08-24 18:59:00,79.7,71.5,30.10,SE,131,1.0,1.1,76,0.00,CLR,,0.00,WeatherDisplay:10.37,2013-08-24 23:59:00,
2013-08-24 19:04:00,79.1,71.6,30.10,ESE,123,1.6,2.3,78,0.00,CLR,,0.00,WeatherDisplay:10.37,2013-08-25 00:04:00,
2013-08-24 19:09:00,78.6,71.5,30.10,SE,129,1.0,1.1,79,0.00,CLR,,0.00,WeatherDisplay:10.37,2013-08-25 00:09:00,
2013-08-24 19:14:00,78.2,71.5,30.10,SE,129,0.8,1.1,80,0.00,CLR,,0.00,WeatherDisplay:10.37,2013-08-25 00:14:00,
2013-08-24 19:19:00,77.8,71.1,30.10,SE,127,0.0,0.0,80,0.00,CLR,,0.00,WeatherDisplay:10.37,2013-08-25 00:19:00,
2013-08-24 19:24:00,77.6,70.9,30.10,SE,127,0.0,0.0,80,0.00,CLR,,0.00,WeatherDisplay:10.37,2013-08-25 00:24:00,
2013-08-24 19:30:00,77.4,71.1,30.10,SE,127,0.0,0.0,81,0.00,CLR,,0.00,WeatherDisplay:10.37,2013-08-25 00:30:00,
2013-08-24 19:35:00,76.9,71.0,30.11,SE,127,0.0,0.0,82,0.00,CLR,,0.00,WeatherDisplay:10.37,2013-08-25 00:35:00,
2013-08-24 19:40:00,76.5,70.9,30.10,SE,127,0.0,1.1,83,0.00,CLR,,0.00,WeatherDisplay:10.37,2013-08-25 00:40:00,
2013-08-24 19:45:00,75.9,70.7,30.10,SE,127,0.1,0.0,84,0.00,CLR,,0.00,WeatherDisplay:10.37,2013-08-25 00:45:00,
2013-08-24 19:50:00,75.6,70.8,30.11,SE,127,0.0,0.0,85,0.00,CLR,,0.00,WeatherDisplay:10.37,2013-08-25 00:50:00,
2013-08-24 19:55:00,75.1,70.6,30.11,SE,127,0.4,1.1,86,0.00,CLR,,0.00,WeatherDisplay:10.37,2013-08-25 00:55:00,
2013-08-24 20:00:00,74.8,70.7,30.11,SE,127,0.8,1.1,87,0.00,CLR,,0.00,WeatherDisplay:10.37,2013-08-25 01:00:00,
2013-08-24 20:05:00,74.5,70.4,30.11,SE,127,1.0,1.1,87,0.00,,,0.00,WeatherDisplay:10.37,2013-08-25 01:05:00,
2013-08-24 20:10:00,74.5,70.4,30.11,SE,124,1.0,1.1,87,0.00,,,0.00,WeatherDisplay:10.37,2013-08-25 01:10:00,
2013-08-24 20:15:00,74.3,70.2,30.12,SE,124,1.0,1.1,87,0.00,,,0.00,WeatherDisplay:10.37,2013-08-25 01:15:00,
2013-08-24 20:20:00,73.9,70.1,30.12,SE,124,1.0,1.1,88,0.00,,,0.00,WeatherDisplay:10.37,2013-08-25 01:20:00,
2013-08-24 20:25:00,73.4,69.7,30.12,SE,124,1.0,1.0,88,0.00,,,0.00,WeatherDisplay:10.37,2013-08-25 01:25:00,
2013-08-24 20:30:00,73.1,69.7,30.12,ESE,119,1.0,2.0,89,0.00,,,0.00,WeatherDisplay:10.37,2013-08-25 01:30:00,
2013-08-24 20:35:00,72.9,69.1,30.12,SE,131,1.0,2.3,88,0.00,,,0.00,WeatherDisplay:10.37,2013-08-25 01:35:00,
2013-08-24 20:40:00,72.6,69.2,30.11,SE,126,2.0,3.0,89,0.00,,,0.00,WeatherDisplay:10.37,2013-08-25 01:40:00,
2013-08-24 20:45:00,72.4,69.0,30.12,SE,131,1.0,3.0,89,0.00,,,0.00,WeatherDisplay:10.37,2013-08-25 01:45:00,
2013-08-24 20:50:00,72.3,69.2,30.12,ESE,122,1.6,2.3,90,0.00,,,0.00,WeatherDisplay:10.37,2013-08-25 01:50:00,
2013-08-24 20:55:00,72.3,69.2,30.12,SE,124,1.0,2.0,90,0.00,,,0.00,WeatherDisplay:10.37,2013-08-25 01:55:00,
2013-08-24 21:00:00,72.3,69.2,30.12,SE,130,1.2,2.3,90,0.00,,,0.00,WeatherDisplay:10.37,2013-08-25 02:00:00,
2013-08-24 21:05:00,72.3,68.9,30.12,SE,129,1.0,2.0,89,0.00,,,0.00,WeatherDisplay:10.37,2013-08-25 02:05:00,
2013-08-24 21:10:00,72.3,68.9,30.13,SE,128,1.0,2.0,89,0.00,,,0.00,WeatherDisplay:10.37,2013-08-25 02:10:00,
2013-08-24 21:15:00,72.2,68.8,30.13,SE,131,1.4,2.0,89,0.00,,,0.00,WeatherDisplay:10.37,2013-08-25 02:15:00,
2013-08-24 21:20:00,72.2,68.8,30.13,SE,131,1.0,2.0,89,0.00,,,0.00,WeatherDisplay:10.37,2013-08-25 02:20:00,
2013-08-24 21:25:00,72.0,68.9,30.13,SE,128,1.0,2.0,90,0.00,,,0.00,WeatherDisplay:10.37,2013-08-25 02:25:00,
2013-08-24 21:30:00,71.8,68.7,30.13,SE,129,1.0,3.0,90,0.00,,,0.00,WeatherDisplay:10.37,2013-08-25 02:30:00,
2013-08-24 21:35:00,71.6,68.5,30.13,SE,135,0.0,1.0,90,0.00,,,0.00,WeatherDisplay:10.37,2013-08-25 02:35:00,
2013-08-24 21:40:00,71.5,68.7,30.13,SE,124,1.8,2.3,91,0.00,,,0.00,WeatherDisplay:10.37,2013-08-25 02:40:00,
2013-08-24 21:45:00,71.6,68.8,30.13,SE,142,1.0,2.3,91,0.00,,,0.00,WeatherDisplay:10.37,2013-08-25 02:45:00,
2013-08-24 21:50:00,71.5,68.7,30.13,ESE,115,1.1,2.3,91,0.00,,,0.00,WeatherDisplay:10.37,2013-08-25 02:50:00,
2013-08-24 21:55:00,71.4,68.7,30.13,SE,140,1.0,4.0,91,0.00,,,0.00,WeatherDisplay:10.37,2013-08-25 02:55:00,
2013-08-24 22:00:00,71.5,68.7,30.13,SSE,151,1.2,2.3,91,0.00,,,0.00,WeatherDisplay:10.37,2013-08-25 03:00:00,
2013-08-24 22:05:00,71.5,68.7,30.13,SSE,148,1.0,3.0,91,0.00,,,0.00,WeatherDisplay:10.37,2013-08-25 03:05:00,
2013-08-24 22:10:00,71.5,68.7,30.13,SSE,154,1.0,3.0,91,0.00,,,0.00,WeatherDisplay:10.37,2013-08-25 03:10:00,
2013-08-24 22:15:00,71.5,68.4,30.13,SSE,159,1.0,2.3,90,0.00,,,0.00,WeatherDisplay:10.37,2013-08-25 03:15:00,
2013-08-24 22:20:00,71.3,68.5,30.13,South,177,1.7,2.3,91,0.00,,,0.00,WeatherDisplay:10.37,2013-08-25 03:20:00,
2013-08-24 22:25:00,71.1,68.4,30.13,SSE,153,2.0,3.0,91,0.00,,,0.00,WeatherDisplay:10.37,2013-08-25 03:25:00,
2013-08-24 22:30:00,70.9,68.1,30.14,SE,146,1.0,2.0,91,0.00,,,0.00,WeatherDisplay:10.37,2013-08-25 03:30:00,
2013-08-24 22:35:00,70.7,68.2,30.14,SE,143,1.0,3.0,92,0.00,,,0.00,WeatherDisplay:10.37,2013-08-25 03:35:00,
2013-08-24 22:40:00,70.5,68.1,30.14,SSE,147,1.0,2.0,92,0.00,,,0.00,WeatherDisplay:10.37,2013-08-25 03:40:00,
2013-08-24 22:45:00,70.3,67.9,30.14,SE,130,1.0,2.3,92,0.00,,,0.00,WeatherDisplay:10.37,2013-08-25 03:45:00,
2013-08-24 22:50:00,70.2,67.8,30.14,SE,145,0.8,2.3,92,0.00,,,0.00,WeatherDisplay:10.37,2013-08-25 03:50:00,
2013-08-24 22:55:00,70.1,68.0,30.13,SE,143,1.0,2.0,93,0.00,,,0.00,WeatherDisplay:10.37,2013-08-25 03:55:00,
2013-08-24 23:00:00,70.0,67.9,30.13,SSE,148,1.0,3.0,93,0.00,,,0.00,WeatherDisplay:10.37,2013-08-25 04:00:00,
2013-08-24 23:01:00,70.1,68.0,30.13,SE,134,1.2,2.3,93,0.00,,,0.00,WeatherDisplay:10.37,2013-08-25 04:01:00,
2013-08-24 23:02:00,70.1,68.0,30.13,SSE,163,1.3,2.3,93,0.00,,,0.00,WeatherDisplay:10.37,2013-08-25 04:02:00,
2013-08-24 23:07:00,70.0,67.9,30.14,SE,138,1.2,2.3,93,0.00,,,0.00,WeatherDisplay:10.37,2013-08-25 04:07:00,
2013-08-24 23:12:00,70.0,67.9,30.14,SE,139,1.7,3.5,93,0.00,,,0.00,WeatherDisplay:10.37,2013-08-25 04:12:00,
2013-08-24 23:17:00,70.0,67.9,30.13,SE,139,2.3,3.5,93,0.00,,,0.00,WeatherDisplay:10.37,2013-08-25 04:17:00,
2013-08-24 23:22:00,70.1,68.0,30.13,SE,136,1.7,3.5,93,0.00,,,0.00,WeatherDisplay:10.37,2013-08-25 04:22:00,
2013-08-24 23:27:00,70.1,68.0,30.13,SSW,203,1.7,4.0,93,0.00,,,0.00,WeatherDisplay:10.37,2013-08-25 04:27:00,
2013-08-24 23:32:00,70.1,67.7,30.13,SSE,150,2.3,3.5,92,0.00,,,0.00,WeatherDisplay:10.37,2013-08-25 04:32:00,
2013-08-24 23:37:00,70.2,67.8,30.13,SE,139,2.2,3.5,92,0.00,,,0.00,WeatherDisplay:10.37,2013-08-25 04:37:00,
2013-08-24 23:42:00,70.2,67.8,30.13,SSE,167,1.7,3.5,92,0.00,,,0.00,WeatherDisplay:10.37,2013-08-25 04:42:00,
2013-08-24 23:47:00,70.0,67.6,30.13,SSE,155,2.1,3.5,92,0.00,,,0.00,WeatherDisplay:10.37,2013-08-25 04:47:00,
2013-08-24 23:52:00,69.9,67.5,30.13,SE,136,2.2,3.5,92,0.00,,,0.00,WeatherDisplay:10.37,2013-08-25 04:52:00,
2013-08-24 23:57:00,69.8,67.4,30.13,SSE,158,2.2,4.6,92,0.00,,,0.00,WeatherDisplay:10.37,2013-08-25 04:57:00,